DeKalb, Illinois
Current Conditions -  °F | °C
As of 10:55 PM on Monday 20 Oct 2014 (Local Time) from KDKB Reporting Station
Overcast Overcast  
Wind Chill: 49°   Ceiling: 6000
Heat Index: 49°   Visibility: 10mi
Dew Point: 40°   Wind: 3mph
Humidity: 72%   Direction: 360°N
Pressure: 30.02"   Gusts: NA
Location:  41.93°N, 88.75°W
Report Text: KDKB 210355Z AUTO 36003KT 10SM OVC060 10/05 A3002 RMK AO2 T00950046
Loading
Personal Weather Stations






























Interactive Weather Map
Tropical Storm Tracking
New forecast layout! Learn more

10-Day Weather Forecast

Advertisements
Track Severe Weather on mobile